Flight Track Log - Related Links

Times and Time Zones

All times are in EDT time to prevent confusion due to time zone crossing. See the DAL6225 flight status page for this flight to view local times or setup timezone preferences in your user account.

Time Position Orientation Groundspeed Altitude Reporting Facility
EDT Latitude Longitude Course Direction KTS MPH feet Rate Location/Type
Thu 08:47:51 AM 43.1706 -89.3192 46° Northeast 183 211 3,200  Level Chicago Center
Thu 08:48:53 AM 43.2122 -89.2606 46° Northeast 204 235 5,400 2,419 Climbing Chicago Center
Thu 08:49:55 AM 43.2664 -89.1858 45° Northeast 261 300 8,200 2,710 Climbing Chicago Center
Thu 08:50:57 AM 43.2797 -89.0642 81° East 301 346 11,000 2,098 Climbing Chicago Center
Thu 08:51:58 AM 43.2536 -88.9406 106° East 337 388 12,500 1,561 Climbing Chicago Center
Thu 08:53:00 AM 43.2258 -88.8044 106° East 367 422 14,200 1,355 Climbing Chicago Center
Thu 08:54:02 AM 43.1950 -88.6575 106° East 398 458 15,300 1,161 Climbing Chicago Center
Thu 08:55:04 AM 43.1614 -88.5000 106° East 428 493 16,600 1,415 Climbing Chicago Center
Thu 08:56:05 AM 43.1214 -88.3061 106° East 455 524 18,200 1,707 Climbing Chicago Center
Thu 08:57:07 AM 43.1239 -88.1353 89° East 452 520 20,100 1,790 Climbing Chicago Center
Thu 08:58:09 AM 43.1322 -87.9650 86° East 451 519 21,900 1,694 Climbing Chicago Center
Thu 08:59:11 AM 43.1408 -87.7947 86° East 450 518 23,600 1,415 Climbing Chicago Center
Thu 09:00:12 AM 43.1478 -87.6214 87° East 456 525 24,800 1,171 Climbing Chicago Center
Thu 09:01:14 AM 43.1575 -87.4106 86° East 476 548 26,000 1,065 Climbing Chicago Center
Thu 09:02:16 AM 43.1658 -87.2311 86° East 488 562 27,000 968 Climbing Chicago Center
Thu 09:03:18 AM 43.1714 -87.0439 88° East 493 567 28,000 976 Climbing Chicago Center
Thu 09:04:19 AM 43.1800 -86.8550 86° East 498 573 29,000 976 Climbing Chicago Center
Thu 09:05:21 AM 43.1858 -86.6639 88° East 501 577 30,000 968 Climbing Chicago Center
Thu 09:06:23 AM 43.1939 -86.4728 87° East 503 579 31,000 1,016 Climbing Chicago Center
Thu 09:07:25 AM 43.1992 -86.2817 88° East 501 577 32,100 1,024 Climbing Chicago Center
Thu 09:08:26 AM 43.2053 -86.0878 87° East 503 579 33,100 976 Climbing Chicago Center
Thu 09:09:28 AM 43.2119 -85.8553 88° East 499 574 34,100 726 Climbing Chicago Center
Thu 09:10:30 AM 43.2167 -85.6631 88° East 499 574 34,600 435 Climbing Chicago Center
Thu 09:11:32 AM 43.2222 -85.4672 88° East 510 587 35,000 231 Climbing Chicago Center
Thu 09:12:14 AM 43.2253 -85.3364 88° East 517 595 35,000  Level Cleveland Center
Thu 09:13:14 AM 43.2269 -85.1369 89° East 517 595 35,000  Level Cleveland Center
Thu 09:14:14 AM 43.2306 -84.9375 89° East 522 601 35,000  Level Cleveland Center
Thu 09:15:14 AM 43.2358 -84.7383 88° East 522 601 35,000  Level Cleveland Center
Thu 09:16:14 AM 43.2386 -84.5389 89° East 522 601 35,000  Level Cleveland Center
Thu 09:17:14 AM 43.2411 -84.3367 89° East 522 601 35,000  Level Cleveland Center
Thu 09:18:14 AM 43.2433 -84.1400 89° East 522 601 35,000  Level Cleveland Center
Thu 09:19:14 AM 43.2478 -83.9208 88° East 517 595 35,000  Level Cleveland Center
Thu 09:20:14 AM 43.2486 -83.7442 90° East 517 595 35,000  Level Cleveland Center
Thu 09:21:14 AM 43.2517 -83.5478 89° East 512 589 35,000  Level Cleveland Center
Thu 09:22:14 AM 43.2525 -83.3481 90° East 518 596 35,000  Level Cleveland Center
Thu 09:23:14 AM 43.2550 -83.1458 89° East 518 596 35,000  Level Cleveland Center
Thu 09:24:14 AM 43.2550 -82.9519 90° East 512 589 35,000  Level Cleveland Center
Thu 09:25:14 AM 43.2567 -82.7581 89° East 512 589 35,000  Level Cleveland Center
Thu 09:25:58 AM 43.2500 -82.5833 93° East 520 598 35,000  Level Toronto Center
Thu 09:26:58 AM 43.2167 -82.3833 103° East 520 598 35,000  Level Toronto Center
Thu 09:27:58 AM 43.2000 -82.2000 97° East 520 598 35,000  Level Toronto Center
Thu 09:28:58 AM 43.1833 -81.9833 96° East 520 598 35,000  Level Toronto Center
Thu 09:29:58 AM 43.1833 -81.7833 90° East 520 598 35,000  Level Toronto Center
Thu 09:30:58 AM 43.1667 -81.6000 97° East 520 598 35,000  Level Toronto Center
Thu 09:31:58 AM 43.1500 -81.4000 96° East 520 598 35,000  Level Toronto Center
Thu 09:32:58 AM 43.1333 -81.2167 97° East 520 598 35,000  Level Toronto Center
Thu 09:33:58 AM 43.1167 -81.0000 96° East 520 598 35,000  Level Toronto Center
Thu 09:34:58 AM 43.1000 -80.8167 97° East 520 598 35,000  Level Toronto Center
Thu 09:35:58 AM 43.1000 -80.6167 90° East 520 598 35,000  Level Toronto Center
Thu 09:36:58 AM 43.0833 -80.4167 96° East 520 598 35,000  Level Toronto Center
Thu 09:37:58 AM 43.0667 -80.2333 97° East 520 598 35,000  Level Toronto Center
Thu 09:38:58 AM 43.0500 -80.0167 96° East 520 598 35,000  Level Toronto Center
Thu 09:39:58 AM 43.0333 -79.8167 96° East 520 598 35,000  Level Toronto Center
Thu 09:40:58 AM 43.0167 -79.6333 97° East 520 598 35,000  Level Toronto Center
Thu 09:41:58 AM 43.0000 -79.4333 96° East 520 598 35,000  Level Toronto Center
Thu 09:42:58 AM 42.9833 -79.2167 96° East 530 610 35,000  Level Toronto Center
Thu 09:43:58 AM 42.9667 -79.0167 96° East 530 610 35,000  Level Toronto Center
Thu 09:44:58 AM 42.9500 -78.8333 97° East 530 610 35,000  Level Toronto Center
Thu 09:45:50 AM 42.9344 -78.6806 98° East 522 601 35,000  Level Cleveland Center
Thu 09:46:50 AM 42.9142 -78.4825 98° East 522 601 35,000  Level Cleveland Center
Thu 09:47:50 AM 42.8939 -78.2878 98° East 522 601 35,000  Level Cleveland Center
Thu 09:48:50 AM 42.8731 -78.0844 98° East 522 601 35,000  Level Cleveland Center
Thu 09:49:50 AM 42.8519 -77.8900 98° East 522 601 35,000  Level Cleveland Center
Thu 09:50:50 AM 42.8333 -77.7264 99° East 522 601 35,000  Level Cleveland Center
Thu 09:52:40 AM 42.7822 -77.3494 100° East 532 612 35,000  Level Boston Center
Thu 09:53:40 AM 42.7531 -77.1517 101° East 532 612 35,000 -250 Level Boston Center
Thu 09:54:40 AM 42.7256 -76.9544 101° East 527 606 34,500 -750 Descending Boston Center
Thu 09:55:40 AM 42.6978 -76.7547 101° East 532 612 33,500 -750 Descending Boston Center
Thu 09:56:40 AM 42.6697 -76.5606 101° East 527 606 33,000 -250 Descending Boston Center
Thu 09:57:40 AM 42.6389 -76.3664 102° East 527 606 33,000  Level Boston Center
Thu 09:58:40 AM 42.6086 -76.1500 101° East 522 601 33,000  Level Boston Center
Thu 09:59:40 AM 42.5772 -75.9564 102° East 522 601 33,000 -150 Level Boston Center
Thu 10:00:40 AM 42.5497 -75.7661 101° East 522 601 32,700 -650 Descending Boston Center
Thu 10:01:40 AM 42.5197 -75.5756 102° East 522 601 31,700 -1,000 Descending Boston Center
Thu 10:02:40 AM 42.4875 -75.3739 102° East 522 601 30,700 -950 Descending Boston Center
Thu 10:03:40 AM 42.4444 -75.1833 107° East 528 608 29,800 -1,150 Descending Boston Center
Thu 10:04:40 AM 42.3836 -75.0178 116° Southeast 514 592 28,400 -1,700 Descending Boston Center
Thu 10:05:40 AM 42.3267 -74.8553 115° Southeast 492 566 26,400 -2,100 Descending Boston Center
Thu 10:06:40 AM 42.2656 -74.6958 117° Southeast 482 555 24,200 -2,000 Descending Boston Center
Thu 10:07:40 AM 42.2200 -74.5708 116° Southeast 470 541 22,400 -2,150 Descending Boston Center
Thu 10:08:40 AM 42.1583 -74.4033 116° Southeast 439 505 19,900 -2,200 Descending Boston Center
Thu 10:09:40 AM 42.1064 -74.2731 118° Southeast 432 497 18,000 -1,050 Descending Boston Center
Thu 10:10:40 AM 42.0139 -74.1781 143° Southeast 373 429 17,800 -700 Descending Boston Center
Thu 10:11:40 AM 41.9189 -74.1308 160° South 367 422 16,600 -1,200 Descending Boston Center
Thu 10:12:40 AM 41.8194 -74.0808 159° South 381 438 15,400 -1,350 Descending Boston Center
Thu 10:13:40 AM 41.7203 -74.0311 159° South 381 438 13,900 -1,550 Descending Boston Center
Thu 10:14:40 AM 41.6250 -73.9814 159° South 381 438 12,300 -1,534 Descending Boston Center
Thu 10:15:53 AM 41.5167 -73.9167 156° South 350 403 10,500 -1,254 Descending New York TRACON
Thu 10:16:54 AM 41.4333 -73.8833 163° South 290 334 9,500 -1,200 Descending New York TRACON
Thu 10:17:53 AM 41.3667 -73.8167 143° Southeast 274 315 8,100 -756 Descending New York TRACON
Thu 10:18:53 AM 41.3000 -73.7667 151° Southeast 281 323 8,000 -50 Descending New York TRACON
Thu 10:19:54 AM 41.2500 -73.7000 135° Southeast 287 330 8,000 -446 Level New York TRACON
Thu 10:20:54 AM 41.2167 -73.6167 118° Southeast 297 342 7,100 -950 Descending New York TRACON
Thu 10:21:54 AM 41.1333 -73.5833 163° South 279 321 6,100 -1,000 Descending New York TRACON
Thu 10:22:54 AM 41.0500 -73.5833 180° South 287 330 5,100 -1,008 Descending New York TRACON
Thu 10:23:53 AM 40.9833 -73.6000 191° South 282 325 4,100 -550 Descending New York TRACON
Thu 10:24:54 AM 40.9000 -73.6167 189° South 274 315 4,000 -50 Descending New York TRACON
Thu 10:25:54 AM 40.8333 -73.6500 201° Southwest 281 323 4,000  Level New York TRACON
Thu 10:26:54 AM 40.8000 -73.7333 242° Southwest 241 277 4,000  Level New York TRACON
Thu 10:27:54 AM 40.8000 -73.8000 270° West 178 205 4,000  Level New York TRACON
Thu 10:28:54 AM 40.7833 -73.8667 252° West 184 212 4,000  Level New York TRACON
Thu 10:29:54 AM 40.7667 -73.9167 246° West 182 209 4,000  Level New York TRACON
Thu 10:30:54 AM 40.7500 -73.9833 252° West 184 212 4,000  Level New York TRACON
Thu 10:31:54 AM 40.7167 -74.0333 229° Southwest 197 227 4,000  Level New York TRACON
Thu 10:32:54 AM 40.6667 -74.0667 207° Southwest 201 231 4,000 -200 Level New York TRACON
Thu 10:33:54 AM 40.6167 -74.1000 207° Southwest 197 227 3,600 -500 Descending New York TRACON
Thu 10:34:54 AM 40.5833 -74.0667 143° Southeast 210 242 3,000 -550 Descending New York TRACON
Thu 10:35:54 AM 40.6167 -74.0167 49° Northeast 189 217 2,500 -500 Descending New York TRACON

Login

Don't have an account? Register now (free) for customized features, flight alerts, and more!